sensor_id;sensor_type;location;lat;lon;timestamp;P1;durP1;ratioP1;P2;durP2;ratioP2
60964;SDS011;46834;51.100;6.886;2023-02-11T00:00:29;17.97;;;10.17;;
60964;SDS011;46834;51.100;6.886;2023-02-11T00:02:55;17.87;;;11.27;;
60964;SDS011;46834;51.100;6.886;2023-02-11T00:05:20;16.30;;;10.10;;
60964;SDS011;46834;51.100;6.886;2023-02-11T00:07:46;18.60;;;10.77;;
60964;SDS011;46834;51.100;6.886;2023-02-11T00:10:12;19.70;;;10.63;;
60964;SDS011;46834;51.100;6.886;2023-02-11T00:12:37;16.17;;;10.00;;
60964;SDS011;46834;51.100;6.886;2023-02-11T00:15:04;16.80;;;10.30;;
60964;SDS011;46834;51.100;6.886;2023-02-11T00:17:32;15.00;;;9.43;;
60964;SDS011;46834;51.100;6.886;2023-02-11T00:19:57;17.37;;;10.13;;
60964;SDS011;46834;51.100;6.886;2023-02-11T00:22:23;16.83;;;10.50;;
60964;SDS011;46834;51.100;6.886;2023-02-11T00:24:49;18.50;;;9.93;;
60964;SDS011;46834;51.100;6.886;2023-02-11T00:27:14;16.50;;;10.23;;
60964;SDS011;46834;51.100;6.886;2023-02-11T00:29:40;15.87;;;10.47;;
60964;SDS011;46834;51.100;6.886;2023-02-11T00:32:06;14.10;;;10.40;;
60964;SDS011;46834;51.100;6.886;2023-02-11T00:34:33;18.03;;;10.73;;
60964;SDS011;46834;51.100;6.886;2023-02-11T00:37:00;18.40;;;11.03;;
60964;SDS011;46834;51.100;6.886;2023-02-11T00:39:26;15.00;;;9.90;;
60964;SDS011;46834;51.100;6.886;2023-02-11T00:41:52;14.90;;;10.80;;
60964;SDS011;46834;51.100;6.886;2023-02-11T00:44:17;14.87;;;10.17;;
60964;SDS011;46834;51.100;6.886;2023-02-11T00:46:43;19.93;;;9.97;;
60964;SDS011;46834;51.100;6.886;2023-02-11T00:49:09;14.37;;;9.97;;
60964;SDS011;46834;51.100;6.886;2023-02-11T00:51:35;15.73;;;10.03;;
60964;SDS011;46834;51.100;6.886;2023-02-11T00:54:01;14.67;;;9.37;;
60964;SDS011;46834;51.100;6.886;2023-02-11T00:56:27;16.70;;;9.23;;
60964;SDS011;46834;51.100;6.886;2023-02-11T00:58:52;16.47;;;9.93;;
60964;SDS011;46834;51.100;6.886;2023-02-11T01:01:18;16.93;;;9.83;;
60964;SDS011;46834;51.100;6.886;2023-02-11T01:03:44;12.87;;;8.97;;
60964;SDS011;46834;51.100;6.886;2023-02-11T01:06:10;16.80;;;9.03;;
60964;SDS011;46834;51.100;6.886;2023-02-11T01:08:37;15.23;;;9.63;;
60964;SDS011;46834;51.100;6.886;2023-02-11T01:11:05;18.90;;;9.67;;
60964;SDS011;46834;51.100;6.886;2023-02-11T01:13:37;13.77;;;8.97;;
60964;SDS011;46834;51.100;6.886;2023-02-11T01:16:04;15.13;;;9.57;;
60964;SDS011;46834;51.100;6.886;2023-02-11T01:18:32;14.83;;;9.07;;
60964;SDS011;46834;51.100;6.886;2023-02-11T01:20:58;15.73;;;8.93;;
60964;SDS011;46834;51.100;6.886;2023-02-11T01:23:24;17.70;;;9.87;;
60964;SDS011;46834;51.100;6.886;2023-02-11T01:25:50;13.57;;;9.03;;
60964;SDS011;46834;51.100;6.886;2023-02-11T01:28:17;13.80;;;9.83;;
60964;SDS011;46834;51.100;6.886;2023-02-11T01:30:46;13.47;;;9.40;;
60964;SDS011;46834;51.100;6.886;2023-02-11T01:33:12;13.83;;;9.37;;
60964;SDS011;46834;51.100;6.886;2023-02-11T01:35:38;15.53;;;9.37;;
60964;SDS011;46834;51.100;6.886;2023-02-11T01:38:05;15.77;;;9.37;;
60964;SDS011;46834;51.100;6.886;2023-02-11T01:40:32;15.30;;;9.53;;
60964;SDS011;46834;51.100;6.886;2023-02-11T01:42:58;15.97;;;9.80;;
60964;SDS011;46834;51.100;6.886;2023-02-11T01:48:08;13.97;;;9.23;;
60964;SDS011;46834;51.100;6.886;2023-02-11T01:50:40;15.67;;;9.60;;
60964;SDS011;46834;51.100;6.886;2023-02-11T01:53:09;15.23;;;9.47;;
60964;SDS011;46834;51.100;6.886;2023-02-11T01:55:54;14.13;;;8.53;;
60964;SDS011;46834;51.100;6.886;2023-02-11T01:58:42;14.87;;;8.37;;
60964;SDS011;46834;51.100;6.886;2023-02-11T02:01:12;13.83;;;8.83;;
60964;SDS011;46834;51.100;6.886;2023-02-11T02:03:45;13.53;;;9.03;;
60964;SDS011;46834;51.100;6.886;2023-02-11T02:06:21;14.40;;;9.23;;
60964;SDS011;46834;51.100;6.886;2023-02-11T02:09:02;18.53;;;9.50;;
60964;SDS011;46834;51.100;6.886;2023-02-11T02:11:33;15.63;;;9.37;;
60964;SDS011;46834;51.100;6.886;2023-02-11T02:14:00;13.53;;;9.67;;
60964;SDS011;46834;51.100;6.886;2023-02-11T02:16:30;15.97;;;9.43;;
60964;SDS011;46834;51.100;6.886;2023-02-11T02:22:23;14.23;;;9.07;;
60964;SDS011;46834;51.100;6.886;2023-02-11T02:24:58;17.93;;;9.43;;
60964;SDS011;46834;51.100;6.886;2023-02-11T02:31:12;13.87;;;8.50;;
60964;SDS011;46834;51.100;6.886;2023-02-11T02:34:08;16.97;;;9.63;;
60964;SDS011;46834;51.100;6.886;2023-02-11T02:36:47;16.03;;;8.13;;
60964;SDS011;46834;51.100;6.886;2023-02-11T02:39:25;15.33;;;9.03;;
60964;SDS011;46834;51.100;6.886;2023-02-11T02:41:57;11.87;;;8.63;;
60964;SDS011;46834;51.100;6.886;2023-02-11T02:44:24;16.67;;;9.47;;
60964;SDS011;46834;51.100;6.886;2023-02-11T02:46:50;17.17;;;9.23;;
60964;SDS011;46834;51.100;6.886;2023-02-11T02:49:16;16.27;;;9.37;;
60964;SDS011;46834;51.100;6.886;2023-02-11T02:54:52;12.57;;;8.27;;
60964;SDS011;46834;51.100;6.886;2023-02-11T03:03:53;13.33;;;8.33;;
60964;SDS011;46834;51.100;6.886;2023-02-11T03:09:39;14.50;;;8.53;;
60964;SDS011;46834;51.100;6.886;2023-02-11T03:12:18;14.77;;;9.03;;
60964;SDS011;46834;51.100;6.886;2023-02-11T03:14:47;14.27;;;9.20;;
60964;SDS011;46834;51.100;6.886;2023-02-11T03:17:15;15.70;;;9.77;;
60964;SDS011;46834;51.100;6.886;2023-02-11T03:19:43;17.03;;;9.93;;
60964;SDS011;46834;51.100;6.886;2023-02-11T03:22:17;16.87;;;9.87;;
60964;SDS011;46834;51.100;6.886;2023-02-11T03:24:50;14.80;;;10.03;;
60964;SDS011;46834;51.100;6.886;2023-02-11T03:28:17;18.00;;;10.20;;
60964;SDS011;46834;51.100;6.886;2023-02-11T03:33:05;16.73;;;9.67;;
60964;SDS011;46834;51.100;6.886;2023-02-11T03:35:48;18.57;;;10.07;;
60964;SDS011;46834;51.100;6.886;2023-02-11T03:38:21;15.30;;;10.03;;
60964;SDS011;46834;51.100;6.886;2023-02-11T03:40:56;16.17;;;10.03;;
60964;SDS011;46834;51.100;6.886;2023-02-11T03:43:35;15.77;;;9.73;;
60964;SDS011;46834;51.100;6.886;2023-02-11T03:46:06;17.13;;;10.40;;
60964;SDS011;46834;51.100;6.886;2023-02-11T03:48:36;20.23;;;11.17;;
60964;SDS011;46834;51.100;6.886;2023-02-11T03:51:08;15.63;;;9.87;;
60964;SDS011;46834;51.100;6.886;2023-02-11T03:53:37;17.10;;;10.60;;
60964;SDS011;46834;51.100;6.886;2023-02-11T03:56:07;17.47;;;10.43;;
60964;SDS011;46834;51.100;6.886;2023-02-11T03:58:39;15.97;;;9.97;;
60964;SDS011;46834;51.100;6.886;2023-02-11T04:01:05;16.77;;;10.13;;
60964;SDS011;46834;51.100;6.886;2023-02-11T04:03:33;17.03;;;9.93;;
60964;SDS011;46834;51.100;6.886;2023-02-11T04:05:59;16.00;;;10.13;;
60964;SDS011;46834;51.100;6.886;2023-02-11T04:08:25;18.87;;;10.03;;
60964;SDS011;46834;51.100;6.886;2023-02-11T04:10:51;15.73;;;9.87;;
60964;SDS011;46834;51.100;6.886;2023-02-11T04:13:16;16.30;;;9.97;;
60964;SDS011;46834;51.100;6.886;2023-02-11T04:15:42;13.57;;;9.17;;
60964;SDS011;46834;51.100;6.886;2023-02-11T04:18:07;16.97;;;10.00;;
60964;SDS011;46834;51.100;6.886;2023-02-11T04:20:33;13.97;;;9.40;;
60964;SDS011;46834;51.100;6.886;2023-02-11T04:22:59;13.93;;;9.40;;
60964;SDS011;46834;51.100;6.886;2023-02-11T04:25:24;15.47;;;9.60;;
60964;SDS011;46834;51.100;6.886;2023-02-11T04:27:51;14.87;;;9.43;;
60964;SDS011;46834;51.100;6.886;2023-02-11T04:30:16;15.17;;;10.30;;
60964;SDS011;46834;51.100;6.886;2023-02-11T04:32:42;16.60;;;9.83;;
60964;SDS011;46834;51.100;6.886;2023-02-11T04:35:08;15.40;;;9.23;;
60964;SDS011;46834;51.100;6.886;2023-02-11T04:37:34;15.07;;;9.63;;
60964;SDS011;46834;51.100;6.886;2023-02-11T04:40:00;19.80;;;9.30;;
60964;SDS011;46834;51.100;6.886;2023-02-11T04:42:25;14.67;;;8.63;;
60964;SDS011;46834;51.100;6.886;2023-02-11T04:44:51;15.83;;;9.27;;
60964;SDS011;46834;51.100;6.886;2023-02-11T04:47:17;15.40;;;9.23;;
60964;SDS011;46834;51.100;6.886;2023-02-11T04:49:43;17.53;;;10.03;;
60964;SDS011;46834;51.100;6.886;2023-02-11T04:52:08;21.03;;;9.37;;
60964;SDS011;46834;51.100;6.886;2023-02-11T04:54:34;15.03;;;9.73;;
60964;SDS011;46834;51.100;6.886;2023-02-11T04:57:00;13.83;;;8.97;;
60964;SDS011;46834;51.100;6.886;2023-02-11T04:59:26;15.53;;;9.37;;
60964;SDS011;46834;51.100;6.886;2023-02-11T05:01:51;14.40;;;8.83;;
60964;SDS011;46834;51.100;6.886;2023-02-11T05:04:17;16.00;;;9.20;;
60964;SDS011;46834;51.100;6.886;2023-02-11T05:06:43;18.50;;;9.53;;
60964;SDS011;46834;51.100;6.886;2023-02-11T05:09:12;15.00;;;8.57;;
60964;SDS011;46834;51.100;6.886;2023-02-11T05:11:38;15.67;;;8.70;;
60964;SDS011;46834;51.100;6.886;2023-02-11T05:14:04;13.50;;;8.57;;
60964;SDS011;46834;51.100;6.886;2023-02-11T05:16:31;15.93;;;8.27;;
60964;SDS011;46834;51.100;6.886;2023-02-11T05:18:57;16.10;;;8.40;;
60964;SDS011;46834;51.100;6.886;2023-02-11T05:21:23;14.07;;;9.73;;
60964;SDS011;46834;51.100;6.886;2023-02-11T05:23:49;17.87;;;9.37;;
60964;SDS011;46834;51.100;6.886;2023-02-11T05:26:15;16.87;;;9.47;;
60964;SDS011;46834;51.100;6.886;2023-02-11T05:28:42;16.37;;;9.50;;
60964;SDS011;46834;51.100;6.886;2023-02-11T05:31:08;14.37;;;9.17;;
60964;SDS011;46834;51.100;6.886;2023-02-11T05:33:35;16.27;;;8.37;;
60964;SDS011;46834;51.100;6.886;2023-02-11T05:36:03;15.37;;;8.47;;
60964;SDS011;46834;51.100;6.886;2023-02-11T05:38:32;16.30;;;8.87;;
60964;SDS011;46834;51.100;6.886;2023-02-11T05:40:59;13.60;;;9.20;;
60964;SDS011;46834;51.100;6.886;2023-02-11T05:43:25;16.67;;;8.77;;
60964;SDS011;46834;51.100;6.886;2023-02-11T05:45:51;14.10;;;8.77;;
60964;SDS011;46834;51.100;6.886;2023-02-11T05:48:17;18.37;;;9.50;;
60964;SDS011;46834;51.100;6.886;2023-02-11T05:50:43;15.47;;;9.33;;
60964;SDS011;46834;51.100;6.886;2023-02-11T05:53:09;19.00;;;9.90;;
60964;SDS011;46834;51.100;6.886;2023-02-11T05:55:35;12.90;;;8.83;;
60964;SDS011;46834;51.100;6.886;2023-02-11T05:58:02;14.83;;;9.43;;
60964;SDS011;46834;51.100;6.886;2023-02-11T06:00:29;17.37;;;9.17;;
60964;SDS011;46834;51.100;6.886;2023-02-11T06:02:55;14.20;;;8.77;;
60964;SDS011;46834;51.100;6.886;2023-02-11T06:05:20;14.43;;;8.97;;
60964;SDS011;46834;51.100;6.886;2023-02-11T06:07:46;16.90;;;9.10;;
60964;SDS011;46834;51.100;6.886;2023-02-11T06:10:12;13.30;;;9.23;;
60964;SDS011;46834;51.100;6.886;2023-02-11T06:12:37;14.60;;;8.77;;
60964;SDS011;46834;51.100;6.886;2023-02-11T06:15:04;17.23;;;9.30;;
60964;SDS011;46834;51.100;6.886;2023-02-11T06:17:30;16.77;;;9.07;;
60964;SDS011;46834;51.100;6.886;2023-02-11T06:19:57;15.70;;;9.10;;
60964;SDS011;46834;51.100;6.886;2023-02-11T06:22:28;17.13;;;9.13;;
60964;SDS011;46834;51.100;6.886;2023-02-11T06:24:54;17.37;;;9.43;;
60964;SDS011;46834;51.100;6.886;2023-02-11T06:27:20;15.43;;;9.40;;
60964;SDS011;46834;51.100;6.886;2023-02-11T06:29:45;16.47;;;9.40;;
60964;SDS011;46834;51.100;6.886;2023-02-11T06:32:12;16.77;;;9.67;;
60964;SDS011;46834;51.100;6.886;2023-02-11T06:34:38;15.20;;;9.53;;
60964;SDS011;46834;51.100;6.886;2023-02-11T06:37:04;16.67;;;9.90;;
60964;SDS011;46834;51.100;6.886;2023-02-11T06:39:30;16.27;;;9.97;;
60964;SDS011;46834;51.100;6.886;2023-02-11T06:41:55;17.33;;;9.97;;
60964;SDS011;46834;51.100;6.886;2023-02-11T06:44:21;16.33;;;10.00;;
60964;SDS011;46834;51.100;6.886;2023-02-11T06:46:47;14.17;;;9.07;;
60964;SDS011;46834;51.100;6.886;2023-02-11T06:49:12;15.67;;;9.10;;
60964;SDS011;46834;51.100;6.886;2023-02-11T06:51:39;16.33;;;9.37;;
60964;SDS011;46834;51.100;6.886;2023-02-11T06:54:05;14.80;;;9.80;;
60964;SDS011;46834;51.100;6.886;2023-02-11T06:56:32;19.40;;;10.37;;
60964;SDS011;46834;51.100;6.886;2023-02-11T06:58:58;15.90;;;9.70;;
60964;SDS011;46834;51.100;6.886;2023-02-11T07:01:24;14.17;;;9.13;;
60964;SDS011;46834;51.100;6.886;2023-02-11T07:03:52;18.20;;;10.73;;
60964;SDS011;46834;51.100;6.886;2023-02-11T07:06:19;17.47;;;10.47;;
60964;SDS011;46834;51.100;6.886;2023-02-11T07:08:48;18.77;;;10.23;;
60964;SDS011;46834;51.100;6.886;2023-02-11T07:11:18;16.63;;;9.83;;
60964;SDS011;46834;51.100;6.886;2023-02-11T07:13:48;20.63;;;10.60;;
60964;SDS011;46834;51.100;6.886;2023-02-11T07:16:16;16.93;;;10.23;;
60964;SDS011;46834;51.100;6.886;2023-02-11T07:18:43;17.43;;;10.10;;
60964;SDS011;46834;51.100;6.886;2023-02-11T07:21:11;18.53;;;10.03;;
60964;SDS011;46834;51.100;6.886;2023-02-11T07:23:40;18.23;;;10.20;;
60964;SDS011;46834;51.100;6.886;2023-02-11T07:26:06;16.53;;;10.00;;
60964;SDS011;46834;51.100;6.886;2023-02-11T07:28:36;17.97;;;10.60;;
60964;SDS011;46834;51.100;6.886;2023-02-11T07:31:08;20.30;;;10.40;;
60964;SDS011;46834;51.100;6.886;2023-02-11T07:33:39;18.73;;;10.13;;
60964;SDS011;46834;51.100;6.886;2023-02-11T07:36:06;19.70;;;10.67;;
60964;SDS011;46834;51.100;6.886;2023-02-11T07:38:34;18.03;;;11.03;;
60964;SDS011;46834;51.100;6.886;2023-02-11T07:41:05;19.47;;;11.07;;
60964;SDS011;46834;51.100;6.886;2023-02-11T07:43:34;21.27;;;12.47;;
60964;SDS011;46834;51.100;6.886;2023-02-11T07:46:21;18.60;;;10.60;;
60964;SDS011;46834;51.100;6.886;2023-02-11T07:48:49;20.60;;;11.50;;
60964;SDS011;46834;51.100;6.886;2023-02-11T07:51:17;19.20;;;11.17;;
60964;SDS011;46834;51.100;6.886;2023-02-11T07:53:52;19.80;;;11.50;;
60964;SDS011;46834;51.100;6.886;2023-02-11T07:56:20;24.40;;;12.00;;
60964;SDS011;46834;51.100;6.886;2023-02-11T07:58:47;22.33;;;12.60;;
60964;SDS011;46834;51.100;6.886;2023-02-11T08:01:14;23.27;;;11.93;;
60964;SDS011;46834;51.100;6.886;2023-02-11T08:03:46;25.47;;;12.43;;
60964;SDS011;46834;51.100;6.886;2023-02-11T08:06:13;23.50;;;12.43;;
60964;SDS011;46834;51.100;6.886;2023-02-11T08:08:42;21.40;;;11.50;;
60964;SDS011;46834;51.100;6.886;2023-02-11T08:11:09;19.50;;;12.53;;
60964;SDS011;46834;51.100;6.886;2023-02-11T08:13:47;23.07;;;11.97;;
60964;SDS011;46834;51.100;6.886;2023-02-11T08:16:26;19.97;;;12.20;;
60964;SDS011;46834;51.100;6.886;2023-02-11T08:18:57;20.87;;;12.13;;
60964;SDS011;46834;51.100;6.886;2023-02-11T08:21:25;21.33;;;11.90;;
60964;SDS011;46834;51.100;6.886;2023-02-11T08:23:52;21.93;;;11.77;;
60964;SDS011;46834;51.100;6.886;2023-02-11T08:26:19;21.40;;;10.63;;
60964;SDS011;46834;51.100;6.886;2023-02-11T08:28:48;24.37;;;12.23;;
60964;SDS011;46834;51.100;6.886;2023-02-11T08:31:17;22.23;;;12.17;;
60964;SDS011;46834;51.100;6.886;2023-02-11T08:33:52;20.77;;;10.83;;
60964;SDS011;46834;51.100;6.886;2023-02-11T08:36:23;22.83;;;11.23;;
60964;SDS011;46834;51.100;6.886;2023-02-11T08:38:54;19.80;;;11.07;;
60964;SDS011;46834;51.100;6.886;2023-02-11T08:41:23;19.43;;;11.03;;
60964;SDS011;46834;51.100;6.886;2023-02-11T08:43:50;21.10;;;11.27;;
60964;SDS011;46834;51.100;6.886;2023-02-11T08:46:16;24.10;;;11.73;;
60964;SDS011;46834;51.100;6.886;2023-02-11T08:48:44;21.60;;;11.23;;
60964;SDS011;46834;51.100;6.886;2023-02-11T08:51:16;19.88;;;11.05;;
60964;SDS011;46834;51.100;6.886;2023-02-11T08:53:46;20.57;;;11.03;;
60964;SDS011;46834;51.100;6.886;2023-02-11T08:56:14;22.08;;;11.43;;
60964;SDS011;46834;51.100;6.886;2023-02-11T08:58:41;20.80;;;11.38;;
60964;SDS011;46834;51.100;6.886;2023-02-11T09:01:08;17.95;;;10.57;;
60964;SDS011;46834;51.100;6.886;2023-02-11T09:03:36;23.87;;;12.47;;
60964;SDS011;46834;51.100;6.886;2023-02-11T09:06:03;22.67;;;12.50;;
60964;SDS011;46834;51.100;6.886;2023-02-11T09:08:33;19.75;;;11.23;;
60964;SDS011;46834;51.100;6.886;2023-02-11T09:11:04;18.27;;;11.57;;
60964;SDS011;46834;51.100;6.886;2023-02-11T09:13:30;25.07;;;12.47;;
60964;SDS011;46834;51.100;6.886;2023-02-11T09:15:57;19.33;;;11.23;;
60964;SDS011;46834;51.100;6.886;2023-02-11T09:18:25;21.87;;;12.60;;
60964;SDS011;46834;51.100;6.886;2023-02-11T09:20:51;21.15;;;11.25;;
60964;SDS011;46834;51.100;6.886;2023-02-11T09:23:16;19.30;;;11.50;;
60964;SDS011;46834;51.100;6.886;2023-02-11T09:25:42;23.95;;;12.23;;
60964;SDS011;46834;51.100;6.886;2023-02-11T09:28:08;18.98;;;11.25;;
60964;SDS011;46834;51.100;6.886;2023-02-11T09:30:37;20.97;;;12.17;;
60964;SDS011;46834;51.100;6.886;2023-02-11T09:33:03;24.88;;;12.65;;
60964;SDS011;46834;51.100;6.886;2023-02-11T09:35:28;22.93;;;11.77;;
60964;SDS011;46834;51.100;6.886;2023-02-11T09:37:54;23.70;;;12.40;;
60964;SDS011;46834;51.100;6.886;2023-02-11T09:40:20;22.35;;;12.93;;
60964;SDS011;46834;51.100;6.886;2023-02-11T09:45:28;21.73;;;11.80;;
60964;SDS011;46834;51.100;6.886;2023-02-11T09:47:57;20.60;;;11.80;;
60964;SDS011;46834;51.100;6.886;2023-02-11T09:50:31;21.45;;;12.18;;
60964;SDS011;46834;51.100;6.886;2023-02-11T09:53:04;21.10;;;13.05;;
60964;SDS011;46834;51.100;6.886;2023-02-11T09:55:41;21.98;;;11.93;;
60964;SDS011;46834;51.100;6.886;2023-02-11T09:58:11;21.15;;;11.55;;
60964;SDS011;46834;51.100;6.886;2023-02-11T10:00:44;18.15;;;11.85;;
60964;SDS011;46834;51.100;6.886;2023-02-11T10:09:27;19.90;;;11.38;;
60964;SDS011;46834;51.100;6.886;2023-02-11T10:23:53;18.88;;;11.20;;
60964;SDS011;46834;51.100;6.886;2023-02-11T10:26:26;18.77;;;11.32;;
60964;SDS011;46834;51.100;6.886;2023-02-11T10:28:57;17.48;;;11.68;;
60964;SDS011;46834;51.100;6.886;2023-02-11T10:31:47;19.47;;;11.13;;
60964;SDS011;46834;51.100;6.886;2023-02-11T10:34:14;21.33;;;12.23;;
60964;SDS011;46834;51.100;6.886;2023-02-11T10:36:41;20.15;;;12.50;;
60964;SDS011;46834;51.100;6.886;2023-02-11T10:44:36;21.33;;;11.98;;
60964;SDS011;46834;51.100;6.886;2023-02-11T10:47:12;20.00;;;12.10;;
60964;SDS011;46834;51.100;6.886;2023-02-11T10:49:44;19.58;;;11.60;;
60964;SDS011;46834;51.100;6.886;2023-02-11T10:57:40;20.25;;;12.20;;
60964;SDS011;46834;51.100;6.886;2023-02-11T11:02:41;22.27;;;12.75;;
60964;SDS011;46834;51.100;6.886;2023-02-11T11:05:15;18.73;;;11.82;;
60964;SDS011;46834;51.100;6.886;2023-02-11T11:08:18;21.42;;;12.55;;
60964;SDS011;46834;51.100;6.886;2023-02-11T11:10:38;20.38;;;12.80;;
60964;SDS011;46834;51.100;6.886;2023-02-11T11:13:24;19.42;;;11.57;;
60964;SDS011;46834;51.100;6.886;2023-02-11T11:16:10;19.73;;;11.98;;
60964;SDS011;46834;51.100;6.886;2023-02-11T11:18:44;19.98;;;11.80;;
60964;SDS011;46834;51.100;6.886;2023-02-11T11:21:14;18.67;;;11.70;;
60964;SDS011;46834;51.100;6.886;2023-02-11T11:26:28;17.35;;;11.85;;
60964;SDS011;46834;51.100;6.886;2023-02-11T11:29:12;18.45;;;12.13;;
60964;SDS011;46834;51.100;6.886;2023-02-11T11:31:50;21.50;;;12.23;;
60964;SDS011;46834;51.100;6.886;2023-02-11T11:34:36;21.00;;;12.43;;
60964;SDS011;46834;51.100;6.886;2023-02-11T11:37:13;23.85;;;12.05;;
60964;SDS011;46834;51.100;6.886;2023-02-11T11:43:05;20.25;;;12.40;;
60964;SDS011;46834;51.100;6.886;2023-02-11T11:45:56;19.77;;;11.65;;
60964;SDS011;46834;51.100;6.886;2023-02-11T11:48:27;20.55;;;11.68;;
60964;SDS011;46834;51.100;6.886;2023-02-11T11:51:03;22.85;;;12.18;;
60964;SDS011;46834;51.100;6.886;2023-02-11T11:56:15;20.88;;;12.80;;
60964;SDS011;46834;51.100;6.886;2023-02-11T11:58:46;21.40;;;12.68;;
60964;SDS011;46834;51.100;6.886;2023-02-11T12:07:24;20.50;;;13.25;;
60964;SDS011;46834;51.100;6.886;2023-02-11T12:10:17;19.42;;;11.73;;
60964;SDS011;46834;51.100;6.886;2023-02-11T12:16:53;23.58;;;13.60;;
60964;SDS011;46834;51.100;6.886;2023-02-11T12:30:58;24.88;;;13.80;;
60964;SDS011;46834;51.100;6.886;2023-02-11T12:43:10;20.00;;;13.02;;
60964;SDS011;46834;51.100;6.886;2023-02-11T12:49:40;24.08;;;13.60;;
60964;SDS011;46834;51.100;6.886;2023-02-11T12:54:50;23.80;;;13.50;;
60964;SDS011;46834;51.100;6.886;2023-02-11T12:57:45;24.58;;;14.30;;
60964;SDS011;46834;51.100;6.886;2023-02-11T13:00:19;24.33;;;13.95;;
60964;SDS011;46834;51.100;6.886;2023-02-11T13:03:24;23.90;;;14.45;;
60964;SDS011;46834;51.100;6.886;2023-02-11T13:06:20;23.67;;;14.05;;
60964;SDS011;46834;51.100;6.886;2023-02-11T13:09:08;24.35;;;13.88;;
60964;SDS011;46834;51.100;6.886;2023-02-11T13:11:43;22.63;;;14.05;;
60964;SDS011;46834;51.100;6.886;2023-02-11T13:14:27;26.33;;;14.23;;
60964;SDS011;46834;51.100;6.886;2023-02-11T13:17:02;27.08;;;14.73;;
60964;SDS011;46834;51.100;6.886;2023-02-11T13:19:43;23.40;;;14.00;;
60964;SDS011;46834;51.100;6.886;2023-02-11T13:25:35;25.02;;;14.20;;
60964;SDS011;46834;51.100;6.886;2023-02-11T13:28:18;24.10;;;13.80;;
60964;SDS011;46834;51.100;6.886;2023-02-11T13:30:59;25.40;;;13.73;;
60964;SDS011;46834;51.100;6.886;2023-02-11T13:33:30;26.23;;;13.95;;
60964;SDS011;46834;51.100;6.886;2023-02-11T13:38:29;23.08;;;13.77;;
60964;SDS011;46834;51.100;6.886;2023-02-11T13:43:35;25.38;;;14.20;;
60964;SDS011;46834;51.100;6.886;2023-02-11T13:46:04;23.52;;;13.63;;
60964;SDS011;46834;51.100;6.886;2023-02-11T13:48:44;24.95;;;15.00;;
60964;SDS011;46834;51.100;6.886;2023-02-11T13:51:17;27.20;;;14.15;;
60964;SDS011;46834;51.100;6.886;2023-02-11T13:54:06;22.95;;;13.60;;
60964;SDS011;46834;51.100;6.886;2023-02-11T13:56:42;28.85;;;14.65;;
60964;SDS011;46834;51.100;6.886;2023-02-11T14:08:32;25.10;;;14.68;;
60964;SDS011;46834;51.100;6.886;2023-02-11T14:13:30;22.70;;;14.52;;
60964;SDS011;46834;51.100;6.886;2023-02-11T14:16:15;26.38;;;15.27;;
60964;SDS011;46834;51.100;6.886;2023-02-11T14:37:24;26.95;;;15.18;;
60964;SDS011;46834;51.100;6.886;2023-02-11T14:43:15;27.38;;;14.90;;
60964;SDS011;46834;51.100;6.886;2023-02-11T14:45:53;29.00;;;15.43;;
60964;SDS011;46834;51.100;6.886;2023-02-11T14:48:25;27.40;;;15.35;;
60964;SDS011;46834;51.100;6.886;2023-02-11T14:51:08;29.58;;;16.42;;
60964;SDS011;46834;51.100;6.886;2023-02-11T14:53:42;27.60;;;15.38;;
60964;SDS011;46834;51.100;6.886;2023-02-11T14:56:23;24.75;;;14.55;;
60964;SDS011;46834;51.100;6.886;2023-02-11T14:58:54;30.30;;;15.75;;
60964;SDS011;46834;51.100;6.886;2023-02-11T15:01:30;26.58;;;16.25;;
60964;SDS011;46834;51.100;6.886;2023-02-11T15:03:59;27.58;;;15.40;;
60964;SDS011;46834;51.100;6.886;2023-02-11T15:06:30;27.33;;;15.27;;
60964;SDS011;46834;51.100;6.886;2023-02-11T15:09:04;27.83;;;15.70;;
60964;SDS011;46834;51.100;6.886;2023-02-11T15:11:44;28.75;;;15.70;;
60964;SDS011;46834;51.100;6.886;2023-02-11T15:14:18;26.25;;;15.55;;
60964;SDS011;46834;51.100;6.886;2023-02-11T15:16:51;27.38;;;16.23;;
60964;SDS011;46834;51.100;6.886;2023-02-11T15:19:30;26.90;;;15.80;;
60964;SDS011;46834;51.100;6.886;2023-02-11T15:22:04;25.73;;;15.60;;
60964;SDS011;46834;51.100;6.886;2023-02-11T15:24:42;27.13;;;16.10;;
60964;SDS011;46834;51.100;6.886;2023-02-11T15:29:39;28.42;;;15.98;;
60964;SDS011;46834;51.100;6.886;2023-02-11T15:34:43;28.92;;;15.68;;
60964;SDS011;46834;51.100;6.886;2023-02-11T15:37:16;27.05;;;16.20;;
60964;SDS011;46834;51.100;6.886;2023-02-11T15:39:53;27.13;;;16.10;;
60964;SDS011;46834;51.100;6.886;2023-02-11T15:42:36;26.55;;;15.30;;
60964;SDS011;46834;51.100;6.886;2023-02-11T15:47:40;26.48;;;16.00;;
60964;SDS011;46834;51.100;6.886;2023-02-11T15:50:24;28.10;;;16.27;;
60964;SDS011;46834;51.100;6.886;2023-02-11T15:52:54;25.45;;;15.50;;
60964;SDS011;46834;51.100;6.886;2023-02-11T15:55:52;28.67;;;15.45;;
60964;SDS011;46834;51.100;6.886;2023-02-11T15:58:34;27.15;;;15.30;;
60964;SDS011;46834;51.100;6.886;2023-02-11T16:01:01;26.67;;;16.27;;
60964;SDS011;46834;51.100;6.886;2023-02-11T16:03:28;27.75;;;16.48;;
60964;SDS011;46834;51.100;6.886;2023-02-11T16:05:56;30.65;;;15.80;;
60964;SDS011;46834;51.100;6.886;2023-02-11T16:08:55;29.20;;;16.25;;
60964;SDS011;46834;51.100;6.886;2023-02-11T16:11:33;27.40;;;15.93;;
60964;SDS011;46834;51.100;6.886;2023-02-11T16:14:28;29.73;;;15.38;;
60964;SDS011;46834;51.100;6.886;2023-02-11T16:16:55;28.02;;;15.98;;
60964;SDS011;46834;51.100;6.886;2023-02-11T16:19:50;27.85;;;15.27;;
60964;SDS011;46834;51.100;6.886;2023-02-11T16:22:28;29.35;;;15.65;;
60964;SDS011;46834;51.100;6.886;2023-02-11T16:24:59;28.15;;;16.17;;
60964;SDS011;46834;51.100;6.886;2023-02-11T16:30:05;30.15;;;16.35;;
60964;SDS011;46834;51.100;6.886;2023-02-11T16:32:47;29.25;;;16.48;;
60964;SDS011;46834;51.100;6.886;2023-02-11T16:35:13;29.98;;;17.58;;
60964;SDS011;46834;51.100;6.886;2023-02-11T16:37:39;29.52;;;17.25;;
60964;SDS011;46834;51.100;6.886;2023-02-11T16:40:05;26.20;;;15.93;;
60964;SDS011;46834;51.100;6.886;2023-02-11T16:42:31;31.98;;;17.25;;
60964;SDS011;46834;51.100;6.886;2023-02-11T16:44:57;35.17;;;17.13;;
60964;SDS011;46834;51.100;6.886;2023-02-11T16:47:26;27.70;;;15.90;;
60964;SDS011;46834;51.100;6.886;2023-02-11T16:49:55;31.83;;;17.08;;
60964;SDS011;46834;51.100;6.886;2023-02-11T16:52:22;32.75;;;17.55;;
60964;SDS011;46834;51.100;6.886;2023-02-11T16:54:49;29.52;;;16.92;;
60964;SDS011;46834;51.100;6.886;2023-02-11T16:59:46;35.85;;;17.23;;
60964;SDS011;46834;51.100;6.886;2023-02-11T17:02:14;30.83;;;17.30;;
60964;SDS011;46834;51.100;6.886;2023-02-11T17:04:51;29.80;;;16.35;;
60964;SDS011;46834;51.100;6.886;2023-02-11T17:07:20;29.23;;;16.98;;
60964;SDS011;46834;51.100;6.886;2023-02-11T17:09:46;30.00;;;17.83;;
60964;SDS011;46834;51.100;6.886;2023-02-11T17:12:12;29.75;;;17.70;;
60964;SDS011;46834;51.100;6.886;2023-02-11T17:14:37;29.83;;;16.95;;
60964;SDS011;46834;51.100;6.886;2023-02-11T17:17:03;29.35;;;18.15;;
60964;SDS011;46834;51.100;6.886;2023-02-11T17:19:29;32.78;;;18.67;;
60964;SDS011;46834;51.100;6.886;2023-02-11T17:21:54;32.03;;;17.50;;
60964;SDS011;46834;51.100;6.886;2023-02-11T17:24:20;30.40;;;18.67;;
60964;SDS011;46834;51.100;6.886;2023-02-11T17:26:47;31.77;;;18.17;;